createdAt,value
2022-11-21T00:00:11.125Z,0
2022-11-21T00:01:11.155Z,0
2022-11-21T00:02:11.231Z,0
2022-11-21T00:03:11.140Z,0
2022-11-21T00:04:11.183Z,0
2022-11-21T00:05:11.117Z,0
2022-11-21T00:06:11.215Z,0
2022-11-21T00:07:11.186Z,0
2022-11-21T00:08:11.129Z,0
2022-11-21T00:09:11.133Z,0
2022-11-21T00:10:11.140Z,0
2022-11-21T00:11:11.127Z,0
2022-11-21T00:12:11.161Z,0
2022-11-21T00:13:11.135Z,0
2022-11-21T00:14:11.129Z,0
2022-11-21T00:15:11.146Z,0
2022-11-21T00:16:11.124Z,0
2022-11-21T00:17:11.148Z,0
2022-11-21T00:18:11.126Z,0
2022-11-21T00:19:11.138Z,0
2022-11-21T00:20:11.143Z,0
2022-11-21T00:21:11.128Z,0
2022-11-21T00:22:11.144Z,0
2022-11-21T00:23:11.118Z,0
2022-11-21T00:24:11.136Z,0
2022-11-21T00:25:11.128Z,0
2022-11-21T00:26:11.151Z,0
2022-11-21T00:27:11.157Z,0
2022-11-21T00:28:11.133Z,0
2022-11-21T00:29:11.134Z,0
2022-11-21T00:30:11.116Z,0
2022-11-21T00:31:11.215Z,0
2022-11-21T00:32:11.146Z,0
2022-11-21T00:33:11.135Z,0
2022-11-21T00:34:11.164Z,0
2022-11-21T00:35:11.130Z,0
2022-11-21T00:36:11.145Z,0
2022-11-21T00:37:11.234Z,0
2022-11-21T00:38:11.141Z,0
2022-11-21T00:39:11.137Z,0
2022-11-21T00:40:11.131Z,0
2022-11-21T00:41:11.130Z,0
2022-11-21T00:42:11.146Z,0
2022-11-21T00:43:11.143Z,0
2022-11-21T00:44:11.137Z,0
2022-11-21T00:45:11.163Z,0
2022-11-21T00:46:11.131Z,0
2022-11-21T00:47:11.158Z,0
2022-11-21T00:48:11.132Z,0
2022-11-21T00:49:11.135Z,0
2022-11-21T00:50:11.160Z,0
2022-11-21T00:51:11.132Z,0
2022-11-21T00:52:11.309Z,0
2022-11-21T00:53:11.130Z,0
2022-11-21T00:54:11.140Z,0
2022-11-21T00:55:11.135Z,0
2022-11-21T00:56:11.130Z,0
2022-11-21T00:57:11.147Z,0
2022-11-21T00:58:11.129Z,0
2022-11-21T00:59:11.131Z,0
2022-11-21T01:00:11.133Z,0
2022-11-21T01:01:11.250Z,0
2022-11-21T01:02:11.151Z,0
2022-11-21T01:03:11.132Z,0
2022-11-21T01:04:11.136Z,0
2022-11-21T01:05:11.145Z,0
2022-11-21T01:06:11.140Z,0
2022-11-21T01:07:11.185Z,0
2022-11-21T01:08:11.181Z,0
2022-11-21T01:09:11.135Z,0
2022-11-21T01:10:11.148Z,0
2022-11-21T01:11:11.122Z,0
2022-11-21T01:12:11.145Z,0
2022-11-21T01:13:11.125Z,0
2022-11-21T01:14:11.122Z,0
2022-11-21T01:15:11.139Z,0
2022-11-21T01:16:11.133Z,0
2022-11-21T01:17:11.141Z,0
2022-11-21T01:18:11.119Z,0
2022-11-21T01:19:11.149Z,0
2022-11-21T01:20:11.141Z,0
2022-11-21T01:21:11.134Z,0
2022-11-21T01:22:11.144Z,0
2022-11-21T01:23:11.134Z,0
2022-11-21T01:24:11.126Z,0
2022-11-21T01:25:11.118Z,0
2022-11-21T01:26:11.128Z,0
2022-11-21T01:27:11.150Z,0
2022-11-21T01:28:11.125Z,0
2022-11-21T01:29:11.141Z,0
2022-11-21T01:30:11.121Z,0
2022-11-21T01:31:11.147Z,0
2022-11-21T01:32:11.141Z,0
2022-11-21T01:33:11.131Z,0
2022-11-21T01:34:11.134Z,0
2022-11-21T01:35:11.140Z,0
2022-11-21T01:36:11.142Z,0
2022-11-21T01:37:11.148Z,0
2022-11-21T01:38:11.135Z,0
2022-11-21T01:39:11.141Z,0
2022-11-21T01:40:11.138Z,0
2022-11-21T01:41:11.169Z,0
2022-11-21T01:42:11.147Z,0
2022-11-21T01:43:11.142Z,0
2022-11-21T01:44:11.134Z,0
2022-11-21T01:45:11.149Z,0
2022-11-21T01:46:11.134Z,0
2022-11-21T01:47:11.147Z,0
2022-11-21T01:48:11.125Z,0
2022-11-21T01:49:11.130Z,0
2022-11-21T01:50:13.121Z,0
2022-11-21T01:51:11.163Z,0
2022-11-21T01:52:11.148Z,0
2022-11-21T01:53:11.132Z,0
2022-11-21T01:54:11.138Z,0
2022-11-21T01:55:11.137Z,0
2022-11-21T01:56:11.133Z,0
2022-11-21T01:57:11.137Z,0
2022-11-21T01:58:11.143Z,0
2022-11-21T01:59:11.138Z,0
2022-11-21T02:00:11.123Z,0
2022-11-21T02:01:11.193Z,0
2022-11-21T02:02:11.153Z,0
2022-11-21T02:03:11.129Z,0
2022-11-21T02:04:11.145Z,0
2022-11-21T02:05:11.135Z,0
2022-11-21T02:06:11.145Z,0
2022-11-21T02:07:11.215Z,0
2022-11-21T02:08:11.133Z,0
2022-11-21T02:09:11.133Z,0
2022-11-21T02:10:11.147Z,0
2022-11-21T02:11:11.138Z,0
2022-11-21T02:12:11.149Z,0
2022-11-21T02:13:11.142Z,0
2022-11-21T02:14:11.141Z,0
2022-11-21T02:15:11.135Z,0
2022-11-21T02:16:11.143Z,0
2022-11-21T02:17:11.164Z,0
2022-11-21T02:18:11.134Z,0
2022-11-21T02:19:11.148Z,0
2022-11-21T02:20:11.133Z,0
2022-11-21T02:21:11.117Z,0
2022-11-21T02:22:11.150Z,0
2022-11-21T02:23:11.116Z,0
2022-11-21T02:24:11.119Z,0
2022-11-21T02:25:11.139Z,0
2022-11-21T02:26:11.139Z,0
2022-11-21T02:27:11.142Z,0
2022-11-21T02:28:11.140Z,0
2022-11-21T02:29:11.127Z,0
2022-11-21T02:30:11.118Z,0
2022-11-21T02:31:11.139Z,0
2022-11-21T02:32:11.146Z,0
2022-11-21T02:33:11.130Z,0
2022-11-21T02:34:11.114Z,0
2022-11-21T02:35:11.129Z,0
2022-11-21T02:36:11.121Z,0
2022-11-21T02:37:11.132Z,0
2022-11-21T02:38:11.126Z,0
2022-11-21T02:39:11.130Z,0
2022-11-21T02:40:11.135Z,0
2022-11-21T02:41:11.132Z,0
2022-11-21T02:42:11.148Z,0
2022-11-21T02:43:11.149Z,0
2022-11-21T02:44:11.136Z,0
2022-11-21T02:45:11.141Z,0
2022-11-21T02:46:11.156Z,0
2022-11-21T02:47:11.148Z,0
2022-11-21T02:48:11.123Z,0
2022-11-21T02:49:11.145Z,0
2022-11-21T02:50:11.126Z,0
2022-11-21T02:51:11.130Z,0
2022-11-21T02:52:11.154Z,0
2022-11-21T02:53:11.133Z,0
2022-11-21T02:54:11.149Z,0
2022-11-21T02:55:11.137Z,0
2022-11-21T02:56:11.143Z,0
2022-11-21T02:57:11.143Z,0
2022-11-21T02:58:11.140Z,0
2022-11-21T02:59:11.145Z,0
2022-11-21T03:00:11.126Z,0
2022-11-21T03:01:11.165Z,0
2022-11-21T03:02:11.147Z,0
2022-11-21T03:03:11.126Z,0
2022-11-21T03:04:11.137Z,0
2022-11-21T03:05:11.128Z,0
2022-11-21T03:06:11.144Z,0
2022-11-21T03:07:11.174Z,0
2022-11-21T03:08:11.144Z,0
2022-11-21T03:09:11.128Z,0
2022-11-21T03:10:11.120Z,0
2022-11-21T03:11:11.136Z,0
2022-11-21T03:12:11.140Z,0
2022-11-21T03:13:11.148Z,0
2022-11-21T03:14:11.128Z,0
2022-11-21T03:15:11.128Z,0
2022-11-21T03:16:11.131Z,0
2022-11-21T03:17:11.145Z,0
2022-11-21T03:18:11.159Z,0
2022-11-21T03:19:11.126Z,0
2022-11-21T03:20:11.128Z,0
2022-11-21T03:21:11.123Z,0
2022-11-21T03:22:11.144Z,0
2022-11-21T03:23:11.132Z,0
2022-11-21T03:24:11.130Z,0
2022-11-21T03:25:11.125Z,0
2022-11-21T03:26:11.138Z,0
2022-11-21T03:27:11.144Z,0
2022-11-21T03:28:11.117Z,0
2022-11-21T03:29:11.134Z,0
2022-11-21T03:30:11.129Z,0
2022-11-21T03:31:11.137Z,0
2022-11-21T03:32:11.144Z,0
2022-11-21T03:33:11.128Z,0
2022-11-21T03:34:11.128Z,0
2022-11-21T03:35:11.131Z,0
2022-11-21T03:36:11.128Z,0
2022-11-21T03:37:11.135Z,0
2022-11-21T03:38:11.139Z,0
2022-11-21T03:39:11.115Z,0
2022-11-21T03:40:11.130Z,0
2022-11-21T03:41:11.134Z,0
2022-11-21T03:42:11.125Z,0
2022-11-21T03:43:11.117Z,0
2022-11-21T03:44:11.112Z,0
2022-11-21T03:45:11.122Z,0
2022-11-21T03:46:11.121Z,0
2022-11-21T03:47:11.146Z,0
2022-11-21T03:48:11.131Z,0
2022-11-21T03:49:11.125Z,0
2022-11-21T03:50:11.128Z,0
2022-11-21T03:51:11.110Z,0
2022-11-21T03:52:11.157Z,0
2022-11-21T03:53:11.128Z,0
2022-11-21T03:54:11.130Z,0
2022-11-21T03:55:11.136Z,0
2022-11-21T03:56:11.132Z,0
2022-11-21T03:57:11.145Z,0
2022-11-21T03:58:11.121Z,0
2022-11-21T03:59:11.133Z,0
2022-11-21T04:00:11.133Z,0
2022-11-21T04:01:11.180Z,0
2022-11-21T04:02:11.139Z,0
2022-11-21T04:03:11.115Z,0
2022-11-21T04:04:11.128Z,0
2022-11-21T04:05:11.136Z,0
2022-11-21T04:06:11.137Z,0
2022-11-21T04:07:11.176Z,0
2022-11-21T04:08:11.124Z,0
2022-11-21T04:09:11.125Z,0
2022-11-21T04:10:11.140Z,0
2022-11-21T04:11:11.135Z,0
2022-11-21T04:12:11.146Z,0
2022-11-21T04:13:11.151Z,0
2022-11-21T04:14:11.132Z,0
2022-11-21T04:15:13.973Z,0
2022-11-21T04:16:11.132Z,0
2022-11-21T04:17:11.142Z,0
2022-11-21T04:18:11.124Z,0
2022-11-21T04:19:11.152Z,0
2022-11-21T04:20:11.132Z,0
2022-11-21T04:21:11.130Z,0
2022-11-21T04:22:11.148Z,0
2022-11-21T04:23:11.125Z,0
2022-11-21T04:24:11.135Z,0
2022-11-21T04:25:11.148Z,0
2022-11-21T04:26:11.129Z,0
2022-11-21T04:27:11.145Z,0
2022-11-21T04:28:11.130Z,0
2022-11-21T04:29:11.131Z,0
2022-11-21T04:30:11.121Z,0
2022-11-21T04:31:11.606Z,0
2022-11-21T04:32:11.141Z,0
2022-11-21T04:33:11.146Z,0
2022-11-21T04:34:11.126Z,0
2022-11-21T04:35:11.147Z,0
2022-11-21T04:36:11.151Z,0
2022-11-21T04:37:11.899Z,0
2022-11-21T04:38:11.142Z,0
2022-11-21T04:39:11.132Z,0
2022-11-21T04:40:11.142Z,0
2022-11-21T04:41:11.133Z,0
2022-11-21T04:42:11.144Z,0
2022-11-21T04:43:11.151Z,0
2022-11-21T04:44:11.127Z,0
2022-11-21T04:45:11.139Z,0
2022-11-21T04:46:11.127Z,0
2022-11-21T04:47:11.144Z,0
2022-11-21T04:48:11.194Z,0
2022-11-21T04:49:11.136Z,0
2022-11-21T04:50:11.129Z,0
2022-11-21T04:51:11.131Z,0
2022-11-21T04:52:11.288Z,0
2022-11-21T04:53:11.127Z,0
2022-11-21T04:54:11.140Z,0
2022-11-21T04:55:11.146Z,0
2022-11-21T04:56:11.128Z,0
2022-11-21T04:57:11.159Z,0
2022-11-21T04:58:11.119Z,0
2022-11-21T04:59:11.134Z,0
2022-11-21T05:00:11.137Z,0
2022-11-21T05:01:11.172Z,0
2022-11-21T05:02:11.145Z,0
2022-11-21T05:03:11.148Z,0
2022-11-21T05:04:11.127Z,0
2022-11-21T05:05:11.138Z,0
2022-11-21T05:06:11.127Z,0
2022-11-21T05:07:11.263Z,0
2022-11-21T05:08:11.129Z,0
2022-11-21T05:09:11.137Z,0
2022-11-21T05:10:11.127Z,0
2022-11-21T05:11:11.129Z,0
2022-11-21T05:12:11.145Z,0
2022-11-21T05:13:11.208Z,0
2022-11-21T05:14:11.145Z,0
2022-11-21T05:15:11.137Z,0
2022-11-21T05:16:11.149Z,0
2022-11-21T05:17:11.148Z,0
2022-11-21T05:18:11.129Z,0
2022-11-21T05:19:11.213Z,0
2022-11-21T05:20:11.133Z,0
2022-11-21T05:21:11.142Z,0
2022-11-21T05:22:11.141Z,0
2022-11-21T05:23:11.140Z,0
2022-11-21T05:24:11.148Z,0
2022-11-21T05:25:11.128Z,0
2022-11-21T05:26:11.145Z,0
2022-11-21T05:27:11.143Z,0
2022-11-21T05:28:11.134Z,0
2022-11-21T05:29:11.128Z,0
2022-11-21T05:30:11.131Z,0
2022-11-21T05:31:11.139Z,0
2022-11-21T05:32:11.140Z,0
2022-11-21T05:33:11.127Z,0
2022-11-21T05:34:11.152Z,0
2022-11-21T05:35:11.136Z,0
2022-11-21T05:36:11.136Z,0
2022-11-21T05:37:11.149Z,0
2022-11-21T05:38:11.166Z,0
2022-11-21T05:39:11.134Z,0
2022-11-21T05:40:11.123Z,0
2022-11-21T05:41:11.135Z,0
2022-11-21T05:42:11.146Z,0
2022-11-21T05:43:11.171Z,0
2022-11-21T05:44:11.121Z,0
2022-11-21T05:45:11.144Z,0
2022-11-21T05:46:11.133Z,0
2022-11-21T05:47:11.152Z,0
2022-11-21T05:48:11.135Z,0
2022-11-21T05:49:11.148Z,0
2022-11-21T05:50:11.230Z,0
2022-11-21T05:51:11.138Z,0
2022-11-21T05:52:11.149Z,0
2022-11-21T05:53:11.147Z,0
2022-11-21T05:54:11.146Z,0
2022-11-21T05:55:11.146Z,0
2022-11-21T05:56:11.119Z,0
2022-11-21T05:57:11.150Z,0
2022-11-21T05:58:11.128Z,0
2022-11-21T05:59:11.125Z,0
2022-11-21T06:00:11.117Z,0
2022-11-21T06:01:11.138Z,0
2022-11-21T06:02:11.144Z,1
2022-11-21T06:03:11.204Z,1
2022-11-21T06:04:11.144Z,1
2022-11-21T06:05:11.124Z,3
2022-11-21T06:06:11.125Z,3
2022-11-21T06:07:11.244Z,5
2022-11-21T06:08:11.132Z,7
2022-11-21T06:09:11.141Z,7
2022-11-21T06:10:11.122Z,9
2022-11-21T06:11:11.115Z,11
2022-11-21T06:12:11.147Z,14
2022-11-21T06:13:11.141Z,16
2022-11-21T06:14:11.127Z,22
2022-11-21T06:15:11.152Z,25
2022-11-21T06:16:11.129Z,31
2022-11-21T06:17:11.160Z,35
2022-11-21T06:18:11.133Z,40
2022-11-21T06:19:11.160Z,42
2022-11-21T06:20:11.124Z,46
2022-11-21T06:21:11.126Z,53
2022-11-21T06:22:11.147Z,60
2022-11-21T06:23:11.127Z,64
2022-11-21T06:24:11.133Z,70
2022-11-21T06:25:11.145Z,77
2022-11-21T06:26:11.126Z,90
2022-11-21T06:27:11.153Z,101
2022-11-21T06:28:11.142Z,121
2022-11-21T06:29:11.139Z,141
2022-11-21T06:30:11.113Z,160
2022-11-21T06:31:11.130Z,180
2022-11-21T06:32:11.149Z,189
2022-11-21T06:33:11.125Z,195
2022-11-21T06:34:11.142Z,213
2022-11-21T06:35:11.133Z,239
2022-11-21T06:36:11.143Z,245
2022-11-21T06:37:11.149Z,263
2022-11-21T06:38:11.136Z,298
2022-11-21T06:39:11.132Z,309
2022-11-21T06:40:11.115Z,337
2022-11-21T06:41:11.127Z,355
2022-11-21T06:42:11.149Z,372
2022-11-21T06:43:11.147Z,398
2022-11-21T06:44:11.128Z,401
2022-11-21T06:45:11.132Z,416
2022-11-21T06:46:11.142Z,440
2022-11-21T06:47:11.147Z,449
2022-11-21T06:48:11.144Z,431
2022-11-21T06:49:11.136Z,457
2022-11-21T06:50:11.125Z,525
2022-11-21T06:51:11.139Z,565
2022-11-21T06:52:11.148Z,604
2022-11-21T06:53:11.125Z,571
2022-11-21T06:54:16.343Z,536
2022-11-21T06:55:11.125Z,543
2022-11-21T06:56:11.140Z,530
2022-11-21T06:57:11.159Z,519
2022-11-21T06:58:11.145Z,540
2022-11-21T06:59:11.134Z,580
2022-11-21T07:00:11.135Z,565
2022-11-21T07:01:11.203Z,589
2022-11-21T07:02:11.148Z,591
2022-11-21T07:03:11.114Z,589
2022-11-21T07:04:11.138Z,658
2022-11-21T07:05:11.121Z,763
2022-11-21T07:06:11.121Z,842
2022-11-21T07:07:11.169Z,901
2022-11-21T07:08:13.462Z,984
2022-11-21T07:09:32.335Z,984
2022-11-21T07:10:11.122Z,1061
2022-11-21T07:11:24.716Z,1039
2022-11-21T07:12:11.142Z,1148
2022-11-21T07:13:11.133Z,1205
2022-11-21T07:14:11.129Z,1222
2022-11-21T07:15:11.114Z,1078
2022-11-21T07:16:11.132Z,1035
2022-11-21T07:17:11.147Z,999
2022-11-21T07:18:11.121Z,1035
2022-11-21T07:19:11.148Z,1210
2022-11-21T07:20:11.115Z,1246
2022-11-21T07:21:11.128Z,1281
2022-11-21T07:22:11.158Z,1236
2022-11-21T07:23:11.141Z,1150
2022-11-21T07:24:11.131Z,1104
2022-11-21T07:25:11.139Z,1074
2022-11-21T07:26:11.130Z,1052
2022-11-21T07:27:11.148Z,1002
2022-11-21T07:28:11.127Z,923
2022-11-21T07:29:11.158Z,940
2022-11-21T07:30:11.125Z,1006
2022-11-21T07:31:13.878Z,1085
2022-11-21T07:32:11.149Z,1181
2022-11-21T07:33:11.140Z,1384
2022-11-21T07:34:11.136Z,1365
2022-11-21T07:35:11.138Z,1430
2022-11-21T07:36:11.145Z,1566
2022-11-21T07:37:11.143Z,1806
2022-11-21T07:38:11.147Z,1793
2022-11-21T07:39:11.151Z,1644
2022-11-21T07:40:11.115Z,1544
2022-11-21T07:41:11.143Z,1564
2022-11-21T07:42:11.146Z,1797
2022-11-21T07:43:11.255Z,1845
2022-11-21T07:44:11.131Z,1940
2022-11-21T07:45:11.139Z,2713
2022-11-21T07:46:11.140Z,2222
2022-11-21T07:47:11.144Z,5348
2022-11-21T07:48:11.130Z,2757
2022-11-21T07:49:11.128Z,5634
2022-11-21T07:50:11.123Z,3194
2022-11-21T07:51:11.149Z,2809
2022-11-21T07:52:11.150Z,2405
2022-11-21T07:53:11.132Z,2351
2022-11-21T07:54:11.145Z,2123
2022-11-21T07:55:11.137Z,1579
2022-11-21T07:56:11.150Z,1424
2022-11-21T07:57:11.149Z,1432
2022-11-21T07:58:11.134Z,1432
2022-11-21T07:59:11.135Z,1616
2022-11-21T08:00:11.123Z,1791
2022-11-21T08:01:11.187Z,1841
2022-11-21T08:02:11.196Z,1795
2022-11-21T08:03:11.132Z,1704
2022-11-21T08:04:11.136Z,1598
2022-11-21T08:05:11.136Z,1319
2022-11-21T08:06:11.142Z,1113
2022-11-21T08:07:11.189Z,936
2022-11-21T08:08:11.131Z,814
2022-11-21T08:09:11.128Z,814
2022-11-21T08:10:11.121Z,764
2022-11-21T08:11:11.132Z,735
2022-11-21T08:12:11.144Z,777
2022-11-21T08:13:11.123Z,869
2022-11-21T08:14:11.121Z,997
2022-11-21T08:15:11.131Z,1102
2022-11-21T08:16:11.121Z,1246
2022-11-21T08:17:11.155Z,1354
2022-11-21T08:18:11.116Z,1430
2022-11-21T08:19:11.188Z,1671
2022-11-21T08:20:11.132Z,1931
2022-11-21T08:21:14.548Z,2036
2022-11-21T08:22:11.138Z,2021
2022-11-21T08:23:11.134Z,2219
2022-11-21T08:24:11.135Z,2180
2022-11-21T08:25:11.131Z,2007
2022-11-21T08:26:11.162Z,1800
2022-11-21T08:27:11.205Z,1610
2022-11-21T08:28:11.123Z,1590
2022-11-21T08:29:11.144Z,1738
2022-11-21T08:30:11.122Z,1638
2022-11-21T08:31:11.134Z,1610
2022-11-21T08:32:11.149Z,1561
2022-11-21T08:33:11.137Z,1539
2022-11-21T08:34:14.470Z,1664
2022-11-21T08:35:11.143Z,1480
2022-11-21T08:36:11.143Z,1223
2022-11-21T08:37:11.149Z,1288
2022-11-21T08:38:11.131Z,1422
2022-11-21T08:39:11.139Z,1448
2022-11-21T08:40:11.123Z,1502
2022-11-21T08:41:16.087Z,1456
2022-11-21T08:42:11.159Z,1579
2022-11-21T08:43:11.133Z,1603
2022-11-21T08:44:13.820Z,1686
2022-11-21T08:45:11.151Z,1605
2022-11-21T08:46:11.135Z,1657
2022-11-21T08:47:11.154Z,1675
2022-11-21T08:48:11.137Z,1787
2022-11-21T08:49:11.132Z,2053
2022-11-21T08:50:11.120Z,2221
2022-11-21T08:51:11.132Z,2245
2022-11-21T08:52:11.154Z,2115
2022-11-21T08:53:11.134Z,2217
2022-11-21T08:54:11.147Z,2053
2022-11-21T08:55:11.143Z,1939
2022-11-21T08:56:11.140Z,1881
2022-11-21T08:57:11.151Z,2219
2022-11-21T08:58:11.126Z,2057
2022-11-21T08:59:11.148Z,2025
2022-11-21T09:00:11.140Z,2121
2022-11-21T09:01:11.133Z,2169
2022-11-21T09:02:11.191Z,2379
2022-11-21T09:03:11.156Z,2304
2022-11-21T09:04:11.128Z,2403
2022-11-21T09:05:11.131Z,2657
2022-11-21T09:06:11.147Z,2558
2022-11-21T09:07:11.244Z,2864
2022-11-21T09:08:11.146Z,2965
2022-11-21T09:09:11.136Z,2965
2022-11-21T09:10:11.120Z,2965
2022-11-21T09:11:11.131Z,2836
2022-11-21T09:12:11.150Z,2772
2022-11-21T09:13:11.132Z,2523
2022-11-21T09:14:11.129Z,2250
2022-11-21T09:15:11.131Z,2386
2022-11-21T09:16:11.136Z,2121
2022-11-21T09:17:11.145Z,1883
2022-11-21T09:18:11.152Z,1789
2022-11-21T09:19:11.124Z,1494
2022-11-21T09:20:11.160Z,1472
2022-11-21T09:21:11.142Z,1491
2022-11-21T09:22:11.146Z,1445
2022-11-21T09:23:11.122Z,1623
2022-11-21T09:24:11.136Z,1703
2022-11-21T09:25:11.152Z,1522
2022-11-21T09:26:11.136Z,1513
2022-11-21T09:27:11.135Z,1448
2022-11-21T09:28:11.122Z,1459
2022-11-21T09:29:11.124Z,1234
2022-11-21T09:30:11.133Z,1126
2022-11-21T09:31:11.130Z,1041
2022-11-21T09:32:11.149Z,932
2022-11-21T09:33:11.133Z,895
2022-11-21T09:34:11.120Z,963
2022-11-21T09:35:11.132Z,993
2022-11-21T09:36:11.131Z,884
2022-11-21T09:37:11.146Z,818
2022-11-21T09:38:11.119Z,785
2022-11-21T09:39:11.144Z,792
2022-11-21T09:40:11.133Z,779
2022-11-21T09:41:11.129Z,788
2022-11-21T09:42:11.147Z,772
2022-11-21T09:43:11.127Z,713
2022-11-21T09:44:11.134Z,691
2022-11-21T09:45:11.139Z,696
2022-11-21T09:46:11.134Z,857
2022-11-21T09:47:11.150Z,853
2022-11-21T09:48:11.137Z,869
2022-11-21T09:49:11.144Z,965
2022-11-21T09:50:11.123Z,903
2022-11-21T09:51:11.133Z,871
2022-11-21T09:52:16.953Z,952
2022-11-21T09:53:15.754Z,1011
2022-11-21T09:54:15.757Z,1061
2022-11-21T09:55:15.748Z,1146
2022-11-21T09:56:15.751Z,1190
2022-11-21T09:57:15.752Z,1185
2022-11-21T09:58:15.748Z,1152
2022-11-21T09:59:15.741Z,1069
2022-11-21T10:00:15.763Z,1035
2022-11-21T10:01:15.795Z,1035
2022-11-21T10:02:15.739Z,971
2022-11-21T10:03:20.890Z,1058
2022-11-21T10:04:15.741Z,938
2022-11-21T10:05:15.737Z,927
2022-11-21T10:06:15.738Z,886
2022-11-21T10:07:15.813Z,982
2022-11-21T10:08:15.759Z,975
2022-11-21T10:09:15.748Z,975
2022-11-21T10:10:15.747Z,951
2022-11-21T10:11:19.671Z,1146
2022-11-21T10:12:15.738Z,1159
2022-11-21T10:13:15.763Z,1083
2022-11-21T10:14:15.734Z,1048
2022-11-21T10:15:15.745Z,1008
2022-11-21T10:16:15.743Z,975
2022-11-21T10:17:15.744Z,1056
2022-11-21T10:18:15.764Z,1072
2022-11-21T10:19:15.748Z,1000
2022-11-21T10:20:15.739Z,1015
2022-11-21T10:21:15.737Z,991
2022-11-21T10:22:15.758Z,954
2022-11-21T10:23:15.749Z,1028
2022-11-21T10:24:15.739Z,1021
2022-11-21T10:25:15.748Z,1002
2022-11-21T10:26:15.735Z,1056
2022-11-21T10:27:15.728Z,1133
2022-11-21T10:28:15.749Z,1096
2022-11-21T10:29:15.725Z,1113
2022-11-21T10:30:15.731Z,1050
2022-11-21T10:31:15.745Z,1035
2022-11-21T10:32:15.736Z,1133
2022-11-21T10:33:15.741Z,1157
2022-11-21T10:34:15.723Z,1133
2022-11-21T10:35:15.722Z,1146
2022-11-21T10:36:15.728Z,1214
2022-11-21T10:37:15.730Z,1212
2022-11-21T10:38:15.733Z,1253
2022-11-21T10:39:15.716Z,1284
2022-11-21T10:40:15.766Z,1400
2022-11-21T10:41:15.731Z,1247
2022-11-21T10:42:19.118Z,1083
2022-11-21T10:43:15.755Z,1070
2022-11-21T10:44:15.723Z,1013
2022-11-21T10:45:15.721Z,1056
2022-11-21T10:46:15.738Z,1210
2022-11-21T10:47:15.746Z,1529
2022-11-21T10:48:15.739Z,1889
2022-11-21T10:49:15.721Z,1979
2022-11-21T10:50:15.726Z,1996
2022-11-21T10:51:15.721Z,1931
2022-11-21T10:52:15.720Z,1843
2022-11-21T10:53:15.731Z,1907
2022-11-21T10:54:15.731Z,1843
2022-11-21T10:55:15.716Z,1797
2022-11-21T10:56:15.724Z,1671
2022-11-21T10:57:15.731Z,1581
2022-11-21T10:58:15.747Z,1507
2022-11-21T10:59:15.737Z,1445
2022-11-21T11:00:15.722Z,1413
2022-11-21T11:01:15.783Z,1367
2022-11-21T11:02:15.731Z,1504
2022-11-21T11:03:15.746Z,1402
2022-11-21T11:05:15.738Z,1459
2022-11-21T11:06:15.753Z,1561
2022-11-21T11:07:15.780Z,1432
2022-11-21T11:08:15.749Z,1518
2022-11-21T11:09:15.737Z,1518
2022-11-21T11:10:15.731Z,1351
2022-11-21T11:11:15.741Z,1356
2022-11-21T11:12:15.748Z,1387
2022-11-21T11:13:44.532Z,1238
2022-11-21T11:14:15.728Z,1131
2022-11-21T11:15:15.756Z,1030
2022-11-21T11:16:15.736Z,995
2022-11-21T11:17:15.737Z,899
2022-11-21T11:18:15.832Z,811
2022-11-21T11:19:15.739Z,724
2022-11-21T11:20:15.785Z,702
2022-11-21T11:21:15.734Z,718
2022-11-21T11:22:15.734Z,722
2022-11-21T11:23:15.748Z,726
2022-11-21T11:24:15.827Z,670
2022-11-21T11:25:15.736Z,658
2022-11-21T11:26:15.729Z,670
2022-11-21T11:27:15.733Z,733
2022-11-21T11:28:15.746Z,733
2022-11-21T11:29:15.729Z,715
2022-11-21T11:30:15.859Z,718
2022-11-21T11:31:15.736Z,720
2022-11-21T11:32:20.877Z,728
2022-11-21T11:33:15.740Z,740
2022-11-21T11:34:15.752Z,827
2022-11-21T11:35:15.733Z,842
2022-11-21T11:36:15.737Z,928
2022-11-21T11:37:15.734Z,1006
2022-11-21T11:38:15.744Z,1022
2022-11-21T11:39:15.740Z,969
2022-11-21T11:40:15.743Z,892
2022-11-21T11:41:15.740Z,840
2022-11-21T11:42:16.934Z,816
2022-11-21T11:43:15.724Z,783
2022-11-21T11:44:15.712Z,755
2022-11-21T11:45:15.714Z,787
2022-11-21T11:46:15.711Z,916
2022-11-21T11:47:15.715Z,1076
2022-11-21T11:48:15.755Z,1096
2022-11-21T11:49:21.221Z,1065
2022-11-21T11:50:15.826Z,1070
2022-11-21T11:51:15.719Z,1002
2022-11-21T11:52:15.717Z,811
2022-11-21T11:53:15.755Z,678
2022-11-21T11:54:15.714Z,678
2022-11-21T11:55:15.714Z,650
2022-11-21T11:56:15.718Z,626
2022-11-21T11:57:15.714Z,611
2022-11-21T11:58:15.755Z,610
2022-11-21T11:59:15.723Z,630
2022-11-21T12:00:15.726Z,667
2022-11-21T12:01:15.718Z,700
2022-11-21T12:02:15.762Z,685
2022-11-21T12:03:15.740Z,700
2022-11-21T12:04:15.711Z,739
2022-11-21T12:05:15.727Z,847
2022-11-21T12:06:15.727Z,914
2022-11-21T12:08:19.885Z,868
2022-11-21T12:08:42.240Z,798
2022-11-21T12:09:15.865Z,798
2022-11-21T12:10:15.754Z,809
2022-11-21T12:11:15.740Z,927
2022-11-21T12:12:15.740Z,1013
2022-11-21T12:13:15.738Z,1094
2022-11-21T12:14:15.736Z,1126
2022-11-21T12:15:15.740Z,1264
2022-11-21T12:16:15.732Z,1371
2022-11-21T12:17:15.746Z,1253
2022-11-21T12:18:15.744Z,1181
2022-11-21T12:19:15.731Z,1352
2022-11-21T12:20:15.747Z,1561
2022-11-21T12:21:15.722Z,1314
2022-11-21T12:22:15.734Z,1035
2022-11-21T12:23:15.740Z,814
2022-11-21T12:24:15.738Z,735
2022-11-21T12:25:15.732Z,768
2022-11-21T12:26:15.728Z,788
2022-11-21T12:27:15.740Z,740
2022-11-21T12:28:15.746Z,720
2022-11-21T12:29:15.725Z,733
2022-11-21T12:30:15.720Z,790
2022-11-21T12:31:15.735Z,886
2022-11-21T12:32:15.725Z,914
2022-11-21T12:33:15.746Z,912
2022-11-21T12:34:15.733Z,980
2022-11-21T12:35:15.736Z,1074
2022-11-21T12:36:18.322Z,1210
2022-11-21T12:37:15.730Z,1275
2022-11-21T12:38:15.740Z,1249
2022-11-21T12:39:15.728Z,1275
2022-11-21T12:40:15.729Z,1354
2022-11-21T12:41:15.730Z,1474
2022-11-21T12:42:15.724Z,1463
2022-11-21T12:43:15.740Z,1332
2022-11-21T12:44:15.736Z,1201
2022-11-21T12:45:15.721Z,1246
2022-11-21T12:46:15.992Z,1411
2022-11-21T12:47:15.736Z,1467
2022-11-21T12:48:15.723Z,1563
2022-11-21T12:49:15.722Z,1830
2022-11-21T12:50:15.720Z,2082
2022-11-21T12:51:15.819Z,2180
2022-11-21T12:52:15.739Z,2276
2022-11-21T12:53:15.745Z,2318
2022-11-21T12:54:15.769Z,2289
2022-11-21T12:55:15.709Z,2139
2022-11-21T12:56:15.727Z,2243
2022-11-21T12:57:15.725Z,2530
2022-11-21T12:58:15.748Z,2989
2022-11-21T12:59:15.716Z,3398
2022-11-21T13:00:15.724Z,3949
2022-11-21T13:01:20.855Z,4565
2022-11-21T13:02:15.722Z,7629
2022-11-21T13:03:15.752Z,6764
2022-11-21T13:04:15.723Z,6217
2022-11-21T13:05:15.718Z,6672
2022-11-21T13:06:15.716Z,5925
2022-11-21T13:07:15.759Z,5726
2022-11-21T13:08:19.919Z,5693
2022-11-21T13:09:15.716Z,5693
2022-11-21T13:10:15.721Z,4506
2022-11-21T13:11:15.719Z,4136
2022-11-21T13:12:15.710Z,4678
2022-11-21T13:13:15.724Z,4519
2022-11-21T13:14:15.715Z,4593
2022-11-21T13:15:15.732Z,4631
2022-11-21T13:16:15.720Z,4373
2022-11-21T13:17:15.741Z,4025
2022-11-21T13:18:15.738Z,3754
2022-11-21T13:19:15.728Z,3245
2022-11-21T13:20:15.725Z,3216
2022-11-21T13:21:15.736Z,3044
2022-11-21T13:22:15.770Z,2565
2022-11-21T13:23:15.756Z,2115
2022-11-21T13:24:15.728Z,1843
2022-11-21T13:25:15.736Z,1797
2022-11-21T13:26:15.732Z,1780
2022-11-21T13:27:15.739Z,1616
2022-11-21T13:28:15.742Z,1452
2022-11-21T13:29:15.732Z,1358
2022-11-21T13:30:15.726Z,1365
2022-11-21T13:31:15.726Z,1546
2022-11-21T13:32:15.733Z,1915
2022-11-21T13:33:20.841Z,2187
2022-11-21T13:34:15.738Z,2217
2022-11-21T13:35:15.730Z,2077
2022-11-21T13:36:15.737Z,1909
2022-11-21T13:37:15.727Z,1874
2022-11-21T13:38:15.745Z,2005
2022-11-21T13:39:15.729Z,2136
2022-11-21T13:40:15.733Z,2104
2022-11-21T13:41:15.728Z,2211
2022-11-21T13:42:20.010Z,2364
2022-11-21T13:44:15.728Z,2292
2022-11-21T13:45:15.728Z,2139
2022-11-21T13:46:15.720Z,1974
2022-11-21T13:47:15.728Z,1795
2022-11-21T13:48:15.745Z,1734
2022-11-21T13:49:15.727Z,1786
2022-11-21T13:50:15.719Z,1835
2022-11-21T13:51:15.737Z,1863
2022-11-21T13:52:15.728Z,1981
2022-11-21T13:53:15.759Z,2075
2022-11-21T13:54:15.726Z,2012
2022-11-21T13:55:15.733Z,1857
2022-11-21T13:56:15.722Z,1745
2022-11-21T13:57:15.718Z,1605
2022-11-21T13:58:15.737Z,1570
2022-11-21T13:59:15.718Z,1548
2022-11-21T14:00:19.823Z,1476
2022-11-21T14:01:15.818Z,1417
2022-11-21T14:02:15.727Z,1371
2022-11-21T14:03:15.755Z,1367